createdAt,value
2023-02-12T00:01:59.041Z,102844.78
2023-02-12T00:04:30.428Z,102832.09
2023-02-12T00:07:01.802Z,102849.06
2023-02-12T00:09:33.284Z,102844.63
2023-02-12T00:12:04.781Z,102857.78
2023-02-12T00:14:38.820Z,102855.16
2023-02-12T00:17:10.125Z,102857.84
2023-02-12T00:19:41.383Z,102856.81
2023-02-12T00:22:12.676Z,102850.75
2023-02-12T00:24:43.937Z,102863.97
2023-02-12T00:27:15.282Z,102861.34
2023-02-12T00:29:46.577Z,102865.78
2023-02-12T00:32:19.586Z,102828.16
2023-02-12T00:34:50.974Z,102867.47
2023-02-12T00:37:22.235Z,102865.69
2023-02-12T00:39:53.563Z,102874.41
2023-02-12T00:42:24.882Z,102872.50
2023-02-12T00:44:56.141Z,102889.31
2023-02-12T00:47:27.620Z,102879.44
2023-02-12T00:49:58.874Z,102878.50
2023-02-12T00:52:30.193Z,102883.78
2023-02-12T00:55:01.476Z,102879.31
2023-02-12T00:57:33.431Z,102882.75
2023-02-12T01:00:05.326Z,102878.97
2023-02-12T01:02:36.739Z,102887.00
2023-02-12T01:05:08.875Z,102868.44
2023-02-12T01:07:40.665Z,102879.13
2023-02-12T01:10:11.932Z,102885.28
2023-02-12T01:12:43.246Z,102887.88
2023-02-12T01:15:15.182Z,102882.53
2023-02-12T01:17:46.867Z,102882.41
2023-02-12T01:20:21.505Z,102889.34
2023-02-12T01:22:52.912Z,102896.31
2023-02-12T01:25:24.156Z,102890.94
2023-02-12T01:27:55.731Z,102889.06
2023-02-12T01:30:27.014Z,102897.84
2023-02-12T01:32:58.336Z,102902.28
2023-02-12T01:35:29.630Z,102897.97
2023-02-12T01:38:00.899Z,102890.84
2023-02-12T01:40:32.332Z,102895.38
2023-02-12T01:43:04.078Z,102896.28
2023-02-12T01:45:45.294Z,102900.81
2023-02-12T01:48:19.713Z,102886.50
2023-02-12T01:50:52.953Z,102897.16
2023-02-12T01:53:29.686Z,102894.44
2023-02-12T01:56:02.253Z,102896.09
2023-02-12T01:58:41.263Z,102884.50
2023-02-12T02:01:21.153Z,102876.53
2023-02-12T02:03:55.762Z,102893.25
2023-02-12T02:06:32.692Z,102904.63
2023-02-12T02:09:04.591Z,102885.88
2023-02-12T02:11:54.559Z,102898.16
2023-02-12T02:14:43.891Z,102899.78
2023-02-12T02:17:17.914Z,102898.91
2023-02-12T02:20:12.865Z,102897.22
2023-02-12T02:22:55.843Z,102863.16
2023-02-12T02:25:56.138Z,102878.44
2023-02-12T02:28:33.449Z,102902.59
2023-02-12T02:31:07.148Z,102857.97
2023-02-12T02:33:59.569Z,102893.13
2023-02-12T02:37:07.452Z,102890.41
2023-02-12T02:39:55.200Z,102844.88
2023-02-12T02:42:37.052Z,102883.41
2023-02-12T02:45:13.655Z,102885.16
2023-02-12T02:47:49.631Z,102882.50
2023-02-12T02:50:24.644Z,102889.59
2023-02-12T02:53:10.707Z,102865.44
2023-02-12T02:55:56.361Z,102893.13
2023-02-12T02:58:33.916Z,102899.25
2023-02-12T03:01:35.763Z,102868.72
2023-02-12T03:04:12.518Z,102900.78
2023-02-12T03:06:51.205Z,102902.69
2023-02-12T03:09:25.917Z,102904.47
2023-02-12T03:12:03.328Z,102898.19
2023-02-12T03:14:53.839Z,102889.22
2023-02-12T03:17:31.530Z,102908.75
2023-02-12T03:20:12.714Z,102900.97
2023-02-12T03:23:19.506Z,102909.00
2023-02-12T03:25:59.357Z,102906.31
2023-02-12T03:28:34.674Z,102910.00
2023-02-12T03:31:33.992Z,102892.22
2023-02-12T03:34:17.475Z,102919.06
2023-02-12T03:37:08.446Z,102918.13
2023-02-12T03:40:08.391Z,102915.28
2023-02-12T03:42:53.796Z,102895.50
2023-02-12T03:46:12.305Z,102906.28
2023-02-12T03:49:01.860Z,102933.06
2023-02-12T03:51:37.567Z,102930.47
2023-02-12T03:54:12.358Z,102920.56
2023-02-12T03:57:07.093Z,102936.88
2023-02-12T03:59:40.268Z,102917.22
2023-02-12T04:02:12.693Z,102918.22
2023-02-12T04:04:45.178Z,102931.03
2023-02-12T04:07:16.887Z,102931.78
2023-02-12T04:09:48.301Z,102945.38
2023-02-12T04:12:40.238Z,102949.91
2023-02-12T04:15:42.312Z,102944.72
2023-02-12T04:18:41.898Z,102946.50
2023-02-12T04:21:38.074Z,102939.44
2023-02-12T04:24:22.539Z,102943.88
2023-02-12T04:27:05.675Z,102944.81
2023-02-12T04:29:54.888Z,102949.19
2023-02-12T04:32:43.984Z,102953.72
2023-02-12T04:35:33.015Z,102952.88
2023-02-12T04:38:26.532Z,102956.41
2023-02-12T04:40:58.841Z,102938.47
2023-02-12T04:43:36.490Z,102957.34
2023-02-12T04:46:09.147Z,102950.28
2023-02-12T04:48:58.784Z,102947.66
2023-02-12T04:51:30.056Z,102950.31
2023-02-12T04:54:01.365Z,102941.22
2023-02-12T04:56:32.672Z,102925.19
2023-02-12T04:59:04.544Z,102938.56
2023-02-12T05:01:37.909Z,102959.09
2023-02-12T05:04:12.476Z,102959.16
2023-02-12T05:06:45.219Z,102950.34
2023-02-12T05:09:19.801Z,102958.34
2023-02-12T05:11:51.080Z,102963.63
2023-02-12T05:14:25.427Z,102943.09
2023-02-12T05:16:56.839Z,102965.41
2023-02-12T05:19:28.096Z,102961.88
2023-02-12T05:21:59.463Z,102924.31
2023-02-12T05:24:30.825Z,102956.59
2023-02-12T05:27:02.257Z,102957.44
2023-02-12T05:29:33.553Z,102936.88
2023-02-12T05:32:05.263Z,102960.22
2023-02-12T05:34:36.666Z,102951.38
2023-02-12T05:37:07.998Z,102952.34
2023-02-12T05:39:39.344Z,102952.34
2023-02-12T05:42:10.621Z,102956.63
2023-02-12T05:44:41.896Z,102955.91
2023-02-12T05:47:13.306Z,102959.50
2023-02-12T05:49:44.662Z,102963.00
2023-02-12T05:52:15.923Z,102959.41
2023-02-12T05:54:49.837Z,102958.50
2023-02-12T05:57:21.108Z,102946.78
2023-02-12T05:59:52.466Z,102944.19
2023-02-12T06:02:23.803Z,102974.44
2023-02-12T06:04:55.131Z,102973.47
2023-02-12T06:07:26.487Z,102974.28
2023-02-12T06:09:57.827Z,102979.66
2023-02-12T06:12:29.111Z,102978.78
2023-02-12T06:15:00.556Z,102976.97
2023-02-12T06:17:33.927Z,102990.25
2023-02-12T06:20:05.662Z,102987.66
2023-02-12T06:22:38.216Z,102995.56
2023-02-12T06:25:09.498Z,102994.72
2023-02-12T06:27:40.870Z,102998.25
2023-02-12T06:30:12.778Z,102992.94
2023-02-12T06:32:44.135Z,102991.22
2023-02-12T06:35:15.443Z,103000.00
2023-02-12T06:37:46.712Z,102980.25
2023-02-12T06:40:18.242Z,103005.31
2023-02-12T06:42:50.408Z,102997.31
2023-02-12T06:45:22.020Z,102980.34
2023-02-12T06:47:53.289Z,103006.19
2023-02-12T06:50:25.193Z,103005.31
2023-02-12T06:52:58.711Z,103008.78
2023-02-12T06:55:30.002Z,103007.00
2023-02-12T06:58:01.305Z,102977.41
2023-02-12T07:00:32.688Z,103012.28
2023-02-12T07:03:04.055Z,103011.41
2023-02-12T07:05:37.798Z,103020.22
2023-02-12T07:08:09.224Z,103008.69
2023-02-12T07:10:40.631Z,103025.69
2023-02-12T07:13:11.896Z,103016.63
2023-02-12T07:15:43.216Z,103038.25
2023-02-12T07:18:14.677Z,103007.00
2023-02-12T07:20:45.967Z,103026.63
2023-02-12T07:23:17.239Z,103040.94
2023-02-12T07:26:15.522Z,103046.38
2023-02-12T07:28:46.794Z,103040.00
2023-02-12T07:31:23.318Z,103015.13
2023-02-12T07:33:56.648Z,103042.88
2023-02-12T07:36:30.578Z,103050.03
2023-02-12T07:39:02.044Z,102998.03
2023-02-12T07:41:35.811Z,103025.13
2023-02-12T07:44:10.533Z,103035.94
2023-02-12T07:46:48.463Z,103043.19
2023-02-12T07:49:21.839Z,103040.28
2023-02-12T07:51:55.461Z,103049.94
2023-02-12T07:54:26.949Z,103055.34
2023-02-12T07:56:58.423Z,103042.88
2023-02-12T07:59:29.853Z,103065.34
2023-02-12T08:02:01.204Z,103053.91
2023-02-12T08:04:32.655Z,103052.03
2023-02-12T08:07:03.981Z,103060.91
2023-02-12T08:09:35.369Z,103033.13
2023-02-12T08:12:07.055Z,103049.47
2023-02-12T08:14:38.321Z,103052.09
2023-02-12T08:17:09.743Z,103059.28
2023-02-12T08:19:41.092Z,103068.97
2023-02-12T08:22:12.908Z,103048.25
2023-02-12T08:24:44.352Z,103056.28
2023-02-12T08:27:15.689Z,103064.41
2023-02-12T08:29:47.008Z,103063.50
2023-02-12T08:32:18.520Z,103069.78
2023-02-12T08:34:49.904Z,103056.31
2023-02-12T08:37:21.227Z,103084.13
2023-02-12T08:39:52.549Z,103066.19
2023-02-12T08:42:25.627Z,103095.91
2023-02-12T08:44:56.984Z,103079.91
2023-02-12T08:47:31.078Z,103095.13
2023-02-12T08:50:02.738Z,103085.38
2023-02-12T08:52:35.255Z,103079.25
2023-02-12T08:55:06.979Z,103081.16
2023-02-12T08:57:38.273Z,103089.31
2023-02-12T09:00:10.399Z,103080.34
2023-02-12T09:02:41.810Z,103100.88
2023-02-12T09:05:13.266Z,103086.31
2023-02-12T09:07:44.617Z,103118.47
2023-02-12T09:10:16.030Z,103109.59
2023-02-12T09:12:48.315Z,103084.41
2023-02-12T09:15:19.614Z,103101.56
2023-02-12T09:17:51.010Z,103112.34
2023-02-12T09:20:22.291Z,103111.56
2023-02-12T09:22:54.475Z,103095.59
2023-02-12T09:25:26.256Z,103117.28
2023-02-12T09:27:57.691Z,103109.28
2023-02-12T09:30:29.328Z,103100.38
2023-02-12T09:33:00.617Z,103112.97
2023-02-12T09:35:35.949Z,103131.81
2023-02-12T09:38:08.257Z,103110.63
2023-02-12T09:41:10.504Z,103130.28
2023-02-12T09:43:47.869Z,103053.16
2023-02-12T09:46:33.148Z,103131.91
2023-02-12T09:49:11.231Z,103074.34
2023-02-12T09:51:45.383Z,103005.41
2023-02-12T09:54:20.133Z,103131.22
2023-02-12T09:56:55.263Z,103104.19
2023-02-12T09:59:35.150Z,103052.25
2023-02-12T10:02:17.654Z,103138.38
2023-02-12T10:05:00.726Z,103103.31
2023-02-12T10:07:49.061Z,103140.09
2023-02-12T10:10:45.196Z,103145.34
2023-02-12T10:13:38.162Z,103144.59
2023-02-12T10:16:27.532Z,103135.66
2023-02-12T10:19:10.781Z,103148.22
2023-02-12T10:21:45.013Z,103157.84
2023-02-12T10:24:34.900Z,103151.63
2023-02-12T10:27:15.937Z,103099.69
2023-02-12T10:29:48.738Z,103145.56
2023-02-12T10:32:22.973Z,103152.81
2023-02-12T10:34:56.957Z,103125.22
2023-02-12T10:37:32.549Z,103143.38
2023-02-12T10:40:18.326Z,103140.00
2023-02-12T10:42:52.405Z,103135.59
2023-02-12T10:45:32.775Z,103135.75
2023-02-12T10:48:09.568Z,103132.13
2023-02-12T10:50:40.966Z,103140.75
2023-02-12T10:53:20.089Z,103114.59
2023-02-12T10:56:25.103Z,103083.13
2023-02-12T10:59:01.418Z,103133.50
2023-02-12T11:01:38.831Z,103135.41
2023-02-12T11:04:33.258Z,103135.53
2023-02-12T11:07:06.973Z,103134.56
2023-02-12T11:09:46.924Z,103130.09
2023-02-12T11:12:47.902Z,103129.34
2023-02-12T11:15:24.378Z,103125.84
2023-02-12T11:18:05.674Z,103129.44
2023-02-12T11:20:48.428Z,103123.38
2023-02-12T11:23:40.368Z,103120.84
2023-02-12T11:26:17.817Z,103117.19
2023-02-12T11:28:59.559Z,103114.34
2023-02-12T11:31:35.440Z,103112.53
2023-02-12T11:34:16.526Z,103102.91
2023-02-12T11:36:51.504Z,103109.34
2023-02-12T11:39:33.357Z,103112.91
2023-02-12T11:42:15.221Z,103089.81
2023-02-12T11:44:56.762Z,103106.84
2023-02-12T11:47:34.008Z,103106.81
2023-02-12T11:50:15.740Z,103106.81
2023-02-12T11:52:50.589Z,103097.94
2023-02-12T11:55:33.670Z,103103.38
2023-02-12T11:58:16.257Z,103103.69
2023-02-12T12:01:00.480Z,103095.88
2023-02-12T12:03:38.815Z,103084.31
2023-02-12T12:06:29.595Z,103097.91
2023-02-12T12:09:26.784Z,103090.81
2023-02-12T12:12:17.454Z,103090.81
2023-02-12T12:15:33.887Z,103085.78
2023-02-12T12:18:39.884Z,103080.66
2023-02-12T12:21:46.846Z,103084.44
2023-02-12T12:24:26.772Z,103084.09
2023-02-12T12:27:24.501Z,103088.28
2023-02-12T12:30:06.650Z,103083.78
2023-02-12T12:32:42.098Z,103076.00
2023-02-12T12:35:17.892Z,103055.69
2023-02-12T12:38:05.717Z,103073.00
2023-02-12T12:41:14.268Z,103067.91
2023-02-12T12:43:54.936Z,103075.03
2023-02-12T12:46:45.023Z,103066.22
2023-02-12T12:49:54.151Z,103063.59
2023-02-12T12:52:53.032Z,103068.63
2023-02-12T12:55:54.576Z,103041.66
2023-02-12T12:58:38.306Z,103053.34
2023-02-12T13:01:25.168Z,103049.09
2023-02-12T13:04:32.413Z,103043.78
2023-02-12T13:07:34.335Z,103047.25
2023-02-12T13:10:13.900Z,103042.94
2023-02-12T13:13:03.453Z,103040.38
2023-02-12T13:15:47.021Z,103038.72
2023-02-12T13:18:41.201Z,103045.00
2023-02-12T13:21:37.470Z,103029.03
2023-02-12T13:24:21.566Z,103026.09
2023-02-12T13:27:01.169Z,103035.78
2023-02-12T13:29:37.021Z,103040.91
2023-02-12T13:32:28.680Z,103038.00
2023-02-12T13:35:02.224Z,103021.03
2023-02-12T13:37:44.711Z,103037.13
2023-02-12T13:40:22.880Z,103034.53
2023-02-12T13:43:26.424Z,103037.16
2023-02-12T13:46:14.523Z,103030.19
2023-02-12T13:49:30.276Z,103030.19
2023-02-12T13:52:19.734Z,103030.25
2023-02-12T13:55:00.123Z,103029.41
2023-02-12T13:57:31.421Z,103002.28
2023-02-12T14:00:08.238Z,103040.31
2023-02-12T14:02:40.082Z,103043.63
2023-02-12T14:05:20.962Z,103037.09
2023-02-12T14:07:56.359Z,103040.56
2023-02-12T14:10:41.587Z,103008.28
2023-02-12T14:13:22.488Z,103020.75
2023-02-12T14:15:56.500Z,103025.19
2023-02-12T14:18:32.230Z,103028.72
2023-02-12T14:21:09.924Z,103032.09
2023-02-12T14:23:46.259Z,103033.81
2023-02-12T14:26:22.952Z,103036.44
2023-02-12T14:29:01.647Z,103040.97
2023-02-12T14:31:37.948Z,103037.34
2023-02-12T14:34:09.284Z,103038.97
2023-02-12T14:36:46.196Z,103036.13
2023-02-12T14:39:20.783Z,103044.94
2023-02-12T14:42:10.453Z,103042.25
2023-02-12T14:44:46.029Z,103038.66
2023-02-12T14:47:29.249Z,103041.38
2023-02-12T14:50:19.092Z,103045.00
2023-02-12T14:53:00.005Z,103041.44
2023-02-12T14:55:36.401Z,103042.25
2023-02-12T14:58:18.174Z,103042.16
2023-02-12T15:00:56.161Z,103038.66
2023-02-12T15:03:27.520Z,103036.09
2023-02-12T15:06:14.855Z,103028.88
2023-02-12T15:08:56.048Z,103037.88
2023-02-12T15:11:52.876Z,103030.91
2023-02-12T15:14:28.018Z,103038.19
2023-02-12T15:17:11.900Z,103009.63
2023-02-12T15:19:52.884Z,103032.06
2023-02-12T15:22:39.502Z,103024.88
2023-02-12T15:25:25.809Z,103047.06
2023-02-12T15:28:18.960Z,103046.84
2023-02-12T15:30:52.909Z,103015.59
2023-02-12T15:33:35.816Z,103031.59
2023-02-12T15:36:10.573Z,103033.16
2023-02-12T15:38:42.064Z,103040.28
2023-02-12T15:41:38.223Z,103050.97
2023-02-12T15:44:24.291Z,103045.72
2023-02-12T15:47:00.692Z,103047.53
2023-02-12T15:49:36.970Z,103046.72
2023-02-12T15:52:11.318Z,103044.03
2023-02-12T15:54:44.988Z,103033.13
2023-02-12T15:57:22.688Z,103041.34
2023-02-12T15:59:56.895Z,103050.19
2023-02-12T16:02:30.907Z,103054.63
2023-02-12T16:05:04.370Z,103048.34
2023-02-12T16:07:37.107Z,103052.72
2023-02-12T16:10:14.214Z,103047.28
2023-02-12T16:12:47.000Z,103057.78
2023-02-12T16:15:45.808Z,103049.69
2023-02-12T16:18:25.470Z,103042.38
2023-02-12T16:21:12.597Z,103062.03
2023-02-12T16:23:45.491Z,103068.09
2023-02-12T16:26:22.771Z,103066.13
2023-02-12T16:28:56.754Z,103078.44
2023-02-12T16:31:28.228Z,103079.16
2023-02-12T16:34:00.909Z,103074.75
2023-02-12T16:36:32.453Z,103062.03
2023-02-12T16:39:06.398Z,103074.59
2023-02-12T16:41:55.208Z,103084.19
2023-02-12T16:44:29.393Z,103072.41
2023-02-12T16:47:01.466Z,103092.88
2023-02-12T16:49:32.778Z,103095.50
2023-02-12T16:52:40.565Z,103088.44
2023-02-12T16:55:13.705Z,103088.25
2023-02-12T16:57:45.028Z,103096.00
2023-02-12T17:00:17.309Z,103103.88
2023-02-12T17:02:48.650Z,103104.75
2023-02-12T17:05:19.933Z,103102.06
2023-02-12T17:07:51.668Z,103109.06
2023-02-12T17:10:22.945Z,103101.03
2023-02-12T17:12:54.235Z,103094.72
2023-02-12T17:15:33.406Z,103074.16
2023-02-12T17:18:04.717Z,103104.44
2023-02-12T17:20:36.749Z,103098.22
2023-02-12T17:23:09.913Z,103080.13
2023-02-12T17:25:41.265Z,103112.19
2023-02-12T17:28:12.690Z,103105.06
2023-02-12T17:30:44.535Z,103102.41
2023-02-12T17:33:18.544Z,103073.53
2023-02-12T17:35:49.964Z,103110.31
2023-02-12T17:38:21.301Z,103108.50
2023-02-12T17:40:53.307Z,103094.16
2023-02-12T17:43:24.915Z,103117.38
2023-02-12T17:45:56.308Z,103116.50
2023-02-12T17:48:27.675Z,103123.63
2023-02-12T17:50:59.334Z,103119.28
2023-02-12T17:53:30.696Z,103106.66
2023-02-12T17:56:02.043Z,103123.72
2023-02-12T17:58:33.432Z,103121.03
2023-02-12T18:01:06.651Z,103117.63
2023-02-12T18:03:38.902Z,103109.56
2023-02-12T18:06:13.930Z,103099.63
2023-02-12T18:08:45.523Z,103118.53
2023-02-12T18:11:18.984Z,103111.53
2023-02-12T18:13:55.734Z,103112.47
2023-02-12T18:16:30.477Z,103112.47
2023-02-12T18:19:06.786Z,103112.47
2023-02-12T18:21:38.690Z,103116.88
2023-02-12T18:24:10.661Z,103099.63
2023-02-12T18:26:45.094Z,103119.38
2023-02-12T18:29:16.406Z,103108.41
2023-02-12T18:31:47.877Z,103061.88
2023-02-12T18:34:19.955Z,103075.31
2023-02-12T18:36:51.448Z,103099.34
2023-02-12T18:39:22.809Z,103133.44
2023-02-12T18:41:54.069Z,103118.19
2023-02-12T18:44:25.446Z,103137.81
2023-02-12T18:46:59.218Z,103122.53
2023-02-12T18:49:30.616Z,103118.00
2023-02-12T18:52:02.087Z,103118.91
2023-02-12T18:54:33.909Z,103144.97
2023-02-12T18:57:05.226Z,103147.56
2023-02-12T18:59:36.740Z,103136.84
2023-02-12T19:02:08.163Z,103143.94
2023-02-12T19:04:39.677Z,103140.44
2023-02-12T19:07:11.101Z,103143.09
2023-02-12T19:09:42.368Z,103141.38
2023-02-12T19:12:13.693Z,103136.81
2023-02-12T19:14:45.055Z,103139.59
2023-02-12T19:17:16.328Z,103111.88
2023-02-12T19:19:52.002Z,103110.16
2023-02-12T19:22:23.256Z,103140.53
2023-02-12T19:24:54.528Z,103140.50
2023-02-12T19:27:25.939Z,103137.03
2023-02-12T19:29:57.552Z,103128.06
2023-02-12T19:32:28.932Z,103139.69
2023-02-12T19:35:02.872Z,103143.13
2023-02-12T19:37:34.272Z,103134.16
2023-02-12T19:40:06.189Z,103133.34
2023-02-12T19:42:37.736Z,103132.47
2023-02-12T19:45:09.494Z,103136.84
2023-02-12T19:47:40.772Z,103135.97
2023-02-12T19:50:12.216Z,103131.56
2023-02-12T19:52:43.495Z,103132.47
2023-02-12T19:55:14.780Z,103134.97
2023-02-12T19:57:47.894Z,103106.34
2023-02-12T20:00:19.463Z,103129.72
2023-02-12T20:02:50.847Z,103113.53
2023-02-12T20:05:22.306Z,103137.66
2023-02-12T20:07:53.737Z,103132.38
2023-02-12T20:10:25.449Z,103135.00
2023-02-12T20:12:57.062Z,103122.34
2023-02-12T20:15:28.442Z,103140.31
2023-02-12T20:17:59.779Z,103120.56
2023-02-12T20:20:32.498Z,103136.75
2023-02-12T20:23:03.827Z,103145.59
2023-02-12T20:25:35.096Z,103139.34
2023-02-12T20:28:06.385Z,103127.78
2023-02-12T20:30:42.899Z,103138.47
2023-02-12T20:33:14.362Z,103138.47
2023-02-12T20:35:45.850Z,103113.44
2023-02-12T20:38:17.289Z,103138.41
2023-02-12T20:40:48.620Z,103134.88
2023-02-12T20:43:19.925Z,103141.97
2023-02-12T20:45:51.240Z,103138.38
2023-02-12T20:48:22.722Z,103120.38
2023-02-12T20:50:54.163Z,103120.41
2023-02-12T20:53:25.821Z,103097.09
2023-02-12T20:56:01.161Z,103132.22
2023-02-12T20:58:32.504Z,103141.91
2023-02-12T21:01:09.527Z,103131.28
2023-02-12T21:03:41.326Z,103127.78
2023-02-12T21:06:12.954Z,103127.78
2023-02-12T21:08:44.611Z,103120.75
2023-02-12T21:11:19.593Z,103122.53
2023-02-12T21:13:59.213Z,103128.72
2023-02-12T21:16:37.007Z,103131.38
2023-02-12T21:19:09.227Z,103129.59
2023-02-12T21:21:42.162Z,103120.78
2023-02-12T21:24:21.452Z,103124.28
2023-02-12T21:26:55.222Z,103120.69
2023-02-12T21:29:27.501Z,103125.09
2023-02-12T21:32:00.146Z,103126.88
2023-02-12T21:34:31.512Z,103126.88
2023-02-12T21:37:02.997Z,103092.00
2023-02-12T21:39:34.468Z,103128.69
2023-02-12T21:42:05.829Z,103133.06
2023-02-12T21:44:37.291Z,103117.03
2023-02-12T21:47:08.793Z,103105.53
2023-02-12T21:49:40.258Z,103118.97
2023-02-12T21:52:11.632Z,103124.28
2023-02-12T21:54:43.091Z,103095.63
2023-02-12T21:57:18.896Z,103131.31
2023-02-12T21:59:50.176Z,103114.31
2023-02-12T22:02:22.525Z,103113.63
2023-02-12T22:04:54.528Z,103100.13
2023-02-12T22:07:25.842Z,103104.41
2023-02-12T22:09:57.195Z,103089.25
2023-02-12T22:12:32.195Z,103092.00
2023-02-12T22:15:03.740Z,103110.03
2023-02-12T22:17:35.136Z,103085.00
2023-02-12T22:20:07.592Z,103088.59
2023-02-12T22:22:38.861Z,103112.69
2023-02-12T22:25:10.122Z,103108.19
2023-02-12T22:27:41.427Z,103101.81
2023-02-12T22:30:12.970Z,103108.03
2023-02-12T22:32:44.561Z,103116.03
2023-02-12T22:35:16.001Z,103116.97
2023-02-12T22:37:47.476Z,103124.94
2023-02-12T22:40:18.964Z,103123.13
2023-02-12T22:42:50.275Z,103098.97
2023-02-12T22:45:21.523Z,103101.56
2023-02-12T22:47:52.793Z,103112.44
2023-02-12T22:50:24.052Z,103124.06
2023-02-12T22:52:55.323Z,103112.44
2023-02-12T22:55:27.573Z,103111.69
2023-02-12T22:57:59.458Z,103119.63
2023-02-12T23:00:31.291Z,103111.63
2023-02-12T23:03:02.595Z,103110.78
2023-02-12T23:05:37.958Z,103093.69
2023-02-12T23:08:09.315Z,103120.47
2023-02-12T23:10:40.577Z,103107.94
2023-02-12T23:13:21.236Z,103115.97
2023-02-12T23:15:59.544Z,103119.53
2023-02-12T23:18:32.023Z,103120.41
2023-02-12T23:21:04.111Z,103115.03
2023-02-12T23:23:35.459Z,103106.91
2023-02-12T23:26:06.899Z,103098.84
2023-02-12T23:28:38.258Z,103114.94
2023-02-12T23:31:09.704Z,103121.28
2023-02-12T23:33:41.161Z,103119.44
2023-02-12T23:36:12.613Z,103116.72
2023-02-12T23:38:44.028Z,103119.38
2023-02-12T23:41:15.294Z,103103.22
2023-02-12T23:43:46.583Z,103112.19
2023-02-12T23:46:17.932Z,103109.31
2023-02-12T23:48:49.209Z,103122.72
2023-02-12T23:51:20.504Z,103120.09
2023-02-12T23:53:51.899Z,103109.34
2023-02-12T23:56:23.371Z,103109.56
2023-02-12T23:58:57.613Z,103111.25
